Airfield :
LOGIN :

Register | Disclaimer

   EN    FR    IT 

 










Legend :    VFR   Marginal VFR   IFR   Intensive IFR   Very Intensive IFR
Visi :
Ceiling :
>= 8 km
>= 3000ft
5 to 8 km
1000 to 3000 ft
1500m to 5 km
500 to 1000 ft
800 to 1500m
200 to 500 ft
< 800m
< 200 ft
Symbols :   Thunderstorms  Fog  Heavy snow  Heavy precipitations  Wind > 20 kt
SIGMETs :     Misc.  Thunderstorms  Icing  Turbulence  Mountain Waves  Volcanic Ashes






- Airport Elevation : 436 ft
- IATA code : ANG


LFBU - Angoulême Brie Champniers

CURRENT METAR :
  • 070330Z AUTO 11003KT CAVOK 21/10 Q1015

EXPIRED METARs :
  • 070300Z AUTO 12003KT 090V150 CAVOK 21/10 Q1015
  • 070230Z AUTO 12003KT CAVOK 22/10 Q1015
  • 070200Z AUTO 15003KT CAVOK 23/11 Q1015
  • 070130Z AUTO 09003KT CAVOK 22/10 Q1015
  • 070100Z AUTO 10003KT CAVOK 22/11 Q1015

TAF TAF LFBU
Valid from the 06 at 18:00 until the 07 at 18:00 UTC


061700Z 0618/0718 09005KT CAVOK



MET'MAP, your aeronautical weather chart ! - Copyright ORBIFLY December 2007 - Disclaimer

ORBIFLY MET'MAP TEAM :

Programming & Development : Alexandra Zaïnal
Concept & original design : Baudouin d'Aumeries
Assistance for programming : Marc-Olivier Méhu
Technical & hardware support : Manuel Goepfert

Contact : metmap@orbifly.com




SOURCES & CREDITS :

   NOAA